Audubon, Minnesota
Current Conditions -  °F | °C
As of 7:16 AM on Friday 31 Oct 2014 (Local Time) from KDTL Reporting Station
Clear Clear  
Wind Chill: -11°   Ceiling: Unl
Heat Index: -7°   Visibility: 10mi
Dew Point: -8°   Wind: 6mph
Humidity: 93%   Direction: 330°NNW
Pressure: 30.58"   Gusts: NA
Location:  46.86°N, 95.98°W
Report Text: KDTL 311216Z AUTO 33005KT 10SM CLR M07/M08 A3058 RMK AO2
Loading
Personal Weather Stations






























Interactive Weather Map
Tropical Storm Tracking
New forecast layout! Learn more

10-Day Weather Forecast

Advertisements
Track Severe Weather on mobile